Time;durP1;ratioP1;P1;durP2;ratioP2;P2;SDS_P1;SDS_P2;PMS_P1;PMS_P2;Temp;Humidity;BMP_temperature;BMP_pressure;BME280_temperature;BME280_humidity;BME280_pressure;Samples;Min_cycle;Max_cycle;Signal;HPM_P1;HPM_P2
2022/12/25 00:00:26;;;;;;;4.78;3.70;;;;;;;;;;5126667;27;20037;-55
2022/12/25 00:02:52;;;;;;;5.03;3.88;;;;;;;;;;5128171;27;20431;-55
2022/12/25 00:05:18;;;;;;;6.75;4.10;;;;;;;;;;5128020;27;20111;-55
2022/12/25 00:07:44;;;;;;;5.25;3.78;;;;;;;;;;5127014;27;20123;-55
2022/12/25 00:10:10;;;;;;;5.55;4.05;;;;;;;;;;5127194;27;20098;-55
2022/12/25 00:12:36;;;;;;;8.85;5.05;;;;;;;;;;5128329;27;20051;-55
2022/12/25 00:15:02;;;;;;;6.13;4.00;;;;;;;;;;5127144;27;20031;-55
2022/12/25 00:17:28;;;;;;;4.80;3.15;;;;;;;;;;5127542;27;20054;-55
2022/12/25 00:19:54;;;;;;;6.75;4.10;;;;;;;;;;5127576;27;20386;-55
2022/12/25 00:22:20;;;;;;;8.73;5.38;;;;;;;;;;5125403;27;20047;-55
2022/12/25 00:24:49;;;;;;;7.88;5.05;;;;;;;;;;5128005;27;20073;-55
2022/12/25 00:27:16;;;;;;;6.13;4.05;;;;;;;;;;5127189;27;20505;-54
2022/12/25 00:29:42;;;;;;;5.15;3.78;;;;;;;;;;5126715;27;20589;-55
2022/12/25 00:32:08;;;;;;;5.68;3.92;;;;;;;;;;5128073;27;20295;-55
2022/12/25 00:34:34;;;;;;;8.70;4.55;;;;;;;;;;5127310;27;20130;-55
2022/12/25 00:37:00;;;;;;;6.03;4.30;;;;;;;;;;5126548;27;20058;-55
2022/12/25 00:39:26;;;;;;;6.10;3.28;;;;;;;;;;5127203;27;20046;-55
2022/12/25 00:44:37;;;;;;;8.88;5.20;;;;;;;;;;5126900;27;20481;-56
2022/12/25 00:47:03;;;;;;;8.35;3.95;;;;;;;;;;5127151;27;20057;-56
2022/12/25 00:49:29;;;;;;;8.43;4.90;;;;;;;;;;5127009;28;20043;-56
2022/12/25 00:51:55;;;;;;;9.88;5.07;;;;;;;;;;5126632;28;20645;-57
2022/12/25 00:54:21;;;;;;;9.25;5.57;;;;;;;;;;5126798;28;20046;-57
2022/12/25 00:56:47;;;;;;;8.43;5.40;;;;;;;;;;5126934;28;20054;-57
2022/12/25 00:59:13;;;;;;;11.88;6.60;;;;;;;;;;5126823;28;20122;-57
2022/12/25 01:01:39;;;;;;;10.00;5.78;;;;;;;;;;5127137;28;20481;-57
2022/12/25 01:04:06;;;;;;;10.23;7.10;;;;;;;;;;5126140;28;20558;-56
2022/12/25 01:06:32;;;;;;;15.50;6.88;;;;;;;;;;5127073;28;20042;-56
2022/12/25 01:11:43;;;;;;;14.82;9.18;;;;;;;;;;5129345;27;20435;-57
2022/12/25 01:14:10;;;;;;;20.73;11.02;;;;;;;;;;5130953;27;20043;-56
2022/12/25 01:16:36;;;;;;;19.42;10.68;;;;;;;;;;5131407;27;20039;-55
2022/12/25 01:19:02;;;;;;;15.98;9.32;;;;;;;;;;5130403;27;20213;-55
2022/12/25 01:21:28;;;;;;;15.10;9.13;;;;;;;;;;5130875;27;20423;-56
2022/12/25 01:23:54;;;;;;;11.50;6.95;;;;;;;;;;5131089;27;20050;-55
2022/12/25 01:26:21;;;;;;;23.42;9.95;;;;;;;;;;5130082;27;20047;-56
2022/12/25 01:28:48;;;;;;;11.70;7.57;;;;;;;;;;5131287;27;20088;-55
2022/12/25 01:31:15;;;;;;;10.93;7.85;;;;;;;;;;5128966;27;20085;-56
2022/12/25 01:33:41;;;;;;;19.48;9.20;;;;;;;;;;5130394;27;20047;-56
2022/12/25 01:36:26;;;;;;;13.18;8.07;;;;;;;;;;5131431;27;20639;-56
2022/12/25 01:38:53;;;;;;;20.88;9.68;;;;;;;;;;5129853;27;20042;-57
2022/12/25 01:41:20;;;;;;;13.00;8.48;;;;;;;;;;5130756;27;20468;-57
2022/12/25 01:44:05;;;;;;;19.77;9.45;;;;;;;;;;5131042;27;20039;-56
2022/12/25 01:46:31;;;;;;;16.02;8.55;;;;;;;;;;5129731;27;20039;-56
2022/12/25 01:49:00;;;;;;;12.85;7.80;;;;;;;;;;5130588;27;20147;-56
2022/12/25 01:51:29;;;;;;;14.95;8.50;;;;;;;;;;5130402;27;20046;-57
2022/12/25 01:53:57;;;;;;;10.52;6.65;;;;;;;;;;5129754;27;20493;-56
2022/12/25 01:56:24;;;;;;;13.73;7.30;;;;;;;;;;5111740;27;20055;-56
2022/12/25 01:58:50;;;;;;;12.57;7.22;;;;;;;;;;5130877;27;20039;-56
2022/12/25 02:01:16;;;;;;;13.52;8.15;;;;;;;;;;5128671;27;20390;-57
2022/12/25 02:03:42;;;;;;;13.70;7.93;;;;;;;;;;5130554;27;20051;-57
2022/12/25 02:06:09;;;;;;;14.07;8.10;;;;;;;;;;5130476;27;20050;-56
2022/12/25 02:08:35;;;;;;;13.07;7.93;;;;;;;;;;5129727;27;20078;-56
2022/12/25 02:11:01;;;;;;;14.73;8.70;;;;;;;;;;5130358;27;20048;-56
2022/12/25 02:13:27;;;;;;;17.70;9.68;;;;;;;;;;5129938;27;20043;-57
2022/12/25 02:15:55;;;;;;;17.73;10.52;;;;;;;;;;5129273;27;20043;-56
2022/12/25 02:18:33;;;;;;;19.27;11.05;;;;;;;;;;5129782;27;20081;-56
2022/12/25 02:20:59;;;;;;;18.85;10.65;;;;;;;;;;5129643;27;20126;-56
2022/12/25 02:23:43;;;;;;;15.77;9.88;;;;;;;;;;5129377;27;20043;-57
2022/12/25 02:26:20;;;;;;;18.15;9.55;;;;;;;;;;5129859;27;20047;-57
2022/12/25 02:28:53;;;;;;;13.80;9.45;;;;;;;;;;5129410;27;20035;-56
2022/12/25 02:31:19;;;;;;;19.88;12.27;;;;;;;;;;5129837;27;20043;-57
2022/12/25 02:34:03;;;;;;;18.17;10.77;;;;;;;;;;5129788;27;20397;-56
2022/12/25 02:36:42;;;;;;;14.60;8.75;;;;;;;;;;5128915;27;20073;-56
2022/12/25 02:41:58;;;;;;;16.73;10.00;;;;;;;;;;5129947;27;20039;-57
2022/12/25 03:06:42;;;;;;;12.05;8.93;;;;;;;;;;5129408;27;20692;-56
2022/12/25 03:11:29;;;;;;;22.05;12.43;;;;;;;;;;5129242;27;20459;-56
2022/12/25 03:12:12;;;;;;;19.92;12.60;;;;;;;;;;5104202;27;20072;-57
2022/12/25 03:17:32;;;;;;;18.45;12.07;;;;;;;;;;5110973;27;20047;-56
2022/12/25 03:28:14;;;;;;;22.77;13.38;;;;;;;;;;5128435;27;20050;-57
2022/12/25 03:35:21;;;;;;;28.77;13.38;;;;;;;;;;5127227;27;20036;-56
2022/12/25 03:36:41;;;;;;;19.48;12.02;;;;;;;;;;5127971;27;20413;-57
2022/12/25 03:45:51;;;;;;;16.05;12.10;;;;;;;;;;5129054;27;20042;-56
2022/12/25 04:37:40;;;;;;;17.70;12.27;;;;;;;;;;5127637;27;20051;-57
2022/12/25 04:40:07;;;;;;;15.35;10.00;;;;;;;;;;5127471;27;20096;-57
2022/12/25 04:42:33;;;;;;;16.17;11.05;;;;;;;;;;5126394;27;20043;-57
2022/12/25 04:44:59;;;;;;;25.27;14.75;;;;;;;;;;5127536;27;20081;-57
2022/12/25 04:47:25;;;;;;;16.58;11.90;;;;;;;;;;5127222;27;20039;-57
2022/12/25 04:49:51;;;;;;;17.88;13.20;;;;;;;;;;5126627;27;20130;-57
2022/12/25 04:52:17;;;;;;;25.65;14.30;;;;;;;;;;5127561;28;20127;-56
2022/12/25 04:54:43;;;;;;;16.90;12.13;;;;;;;;;;5127424;28;20249;-57
2022/12/25 04:57:09;;;;;;;22.92;13.15;;;;;;;;;;5126535;28;20118;-57
2022/12/25 04:59:35;;;;;;;18.13;11.90;;;;;;;;;;5127931;28;20035;-56
2022/12/25 05:02:01;;;;;;;22.25;12.75;;;;;;;;;;5127197;28;20039;-57
2022/12/25 05:04:27;;;;;;;17.15;11.68;;;;;;;;;;5126143;28;20043;-57
2022/12/25 05:06:53;;;;;;;15.43;11.73;;;;;;;;;;5127186;28;20142;-56
2022/12/25 05:09:20;;;;;;;20.55;11.05;;;;;;;;;;5127200;28;20096;-56
2022/12/25 05:11:46;;;;;;;24.35;14.38;;;;;;;;;;5126651;28;20383;-57
2022/12/25 05:14:12;;;;;;;21.38;11.85;;;;;;;;;;5127084;28;20050;-57
2022/12/25 05:16:38;;;;;;;21.00;12.18;;;;;;;;;;5127148;28;20422;-56
2022/12/25 05:19:04;;;;;;;16.55;11.05;;;;;;;;;;5126309;28;20112;-56
2022/12/25 05:21:30;;;;;;;21.85;12.18;;;;;;;;;;5126768;28;20152;-57
2022/12/25 05:23:56;;;;;;;19.48;11.50;;;;;;;;;;5126279;28;20043;-56
2022/12/25 05:26:24;;;;;;;24.73;13.60;;;;;;;;;;5127077;28;20046;-56
2022/12/25 05:28:50;;;;;;;29.30;14.57;;;;;;;;;;5127250;28;20043;-56
2022/12/25 05:31:16;;;;;;;24.55;13.65;;;;;;;;;;5126302;28;20051;-56
2022/12/25 05:33:42;;;;;;;22.30;13.30;;;;;;;;;;5127222;28;20126;-55
2022/12/25 05:36:09;;;;;;;23.88;14.48;;;;;;;;;;5126798;28;20428;-56
2022/12/25 05:38:36;;;;;;;23.25;14.15;;;;;;;;;;5126413;28;20078;-56
2022/12/25 05:41:02;;;;;;;24.98;15.25;;;;;;;;;;5126599;28;20035;-56
2022/12/25 05:43:28;;;;;;;32.38;16.33;;;;;;;;;;5126757;28;20046;-56
2022/12/25 05:45:54;;;;;;;20.85;13.82;;;;;;;;;;5126387;28;20118;-56
2022/12/25 05:48:20;;;;;;;27.92;17.15;;;;;;;;;;5126738;28;20047;-56
2022/12/25 05:50:46;;;;;;;24.63;14.32;;;;;;;;;;5127130;28;20096;-56
2022/12/25 05:53:13;;;;;;;22.95;14.77;;;;;;;;;;5125611;28;20054;-56
2022/12/25 05:55:42;;;;;;;21.83;13.82;;;;;;;;;;5126949;27;20047;-56
2022/12/25 05:58:08;;;;;;;29.85;15.80;;;;;;;;;;5130691;27;20119;-56
2022/12/25 06:00:35;;;;;;;28.33;15.73;;;;;;;;;;5129847;27;20050;-57
2022/12/25 06:03:01;;;;;;;28.20;17.27;;;;;;;;;;5130626;27;20039;-57
2022/12/25 06:05:27;;;;;;;34.65;16.98;;;;;;;;;;5130046;27;20478;-57
2022/12/25 06:07:53;;;;;;;21.67;13.50;;;;;;;;;;5129678;27;20035;-56
2022/12/25 06:10:20;;;;;;;19.77;13.18;;;;;;;;;;5130040;27;20087;-56
2022/12/25 06:12:46;;;;;;;13.82;10.90;;;;;;;;;;5130787;27;20421;-57
2022/12/25 06:15:12;;;;;;;23.52;15.65;;;;;;;;;;5129177;27;20043;-56
2022/12/25 06:17:39;;;;;;;19.85;15.15;;;;;;;;;;5130724;27;20090;-57
2022/12/25 06:20:06;;;;;;;22.23;15.23;;;;;;;;;;5130424;27;20043;-57
2022/12/25 06:22:32;;;;;;;15.68;12.75;;;;;;;;;;5129267;27;20084;-57
2022/12/25 06:24:58;;;;;;;20.55;13.93;;;;;;;;;;5130081;27;20082;-57
2022/12/25 06:27:25;;;;;;;18.08;11.60;;;;;;;;;;5128929;27;20477;-56
2022/12/25 06:29:51;;;;;;;22.33;13.77;;;;;;;;;;5130390;27;20457;-56
2022/12/25 06:32:18;;;;;;;18.95;14.05;;;;;;;;;;5129892;27;20122;-57
2022/12/25 06:34:44;;;;;;;27.77;15.50;;;;;;;;;;5129508;27;20076;-56
2022/12/25 06:37:10;;;;;;;22.83;15.65;;;;;;;;;;5129594;27;20035;-56
2022/12/25 06:39:36;;;;;;;19.20;13.80;;;;;;;;;;5130330;27;20039;-57
2022/12/25 06:42:02;;;;;;;24.40;14.98;;;;;;;;;;5129290;27;20039;-56
2022/12/25 06:44:28;;;;;;;21.10;13.88;;;;;;;;;;5129545;27;20039;-56
2022/12/25 06:46:54;;;;;;;21.23;14.73;;;;;;;;;;5129694;27;20282;-57
2022/12/25 06:49:20;;;;;;;25.02;14.57;;;;;;;;;;5129001;27;20070;-57
2022/12/25 06:51:46;;;;;;;27.23;14.32;;;;;;;;;;5129659;27;20039;-56
2022/12/25 06:54:13;;;;;;;22.55;14.63;;;;;;;;;;5129218;27;20767;-55
2022/12/25 06:56:39;;;;;;;24.20;14.23;;;;;;;;;;5129254;27;20130;-57
2022/12/25 06:59:06;;;;;;;23.33;13.90;;;;;;;;;;5129805;27;20035;-57
2022/12/25 07:01:45;;;;;;;18.17;13.27;;;;;;;;;;5129212;27;20050;-57
2022/12/25 07:04:13;;;;;;;16.35;12.40;;;;;;;;;;5128101;27;20050;-56
2022/12/25 07:06:39;;;;;;;21.55;12.40;;;;;;;;;;5129466;27;20563;-56
2022/12/25 07:09:05;;;;;;;26.40;15.68;;;;;;;;;;5128361;27;20134;-57
2022/12/25 07:11:31;;;;;;;18.15;13.02;;;;;;;;;;5128304;27;20123;-57
2022/12/25 07:13:57;;;;;;;17.90;12.30;;;;;;;;;;5129026;27;20552;-56
2022/12/25 07:16:23;;;;;;;19.67;11.63;;;;;;;;;;5128885;27;20045;-56
2022/12/25 07:18:49;;;;;;;15.48;11.60;;;;;;;;;;5128788;27;20398;-56
2022/12/25 07:21:16;;;;;;;16.50;11.57;;;;;;;;;;5128708;27;20397;-57
2022/12/25 07:23:43;;;;;;;19.13;12.27;;;;;;;;;;5128192;27;20675;-57
2022/12/25 07:26:10;;;;;;;15.27;10.70;;;;;;;;;;5128915;27;20043;-56
2022/12/25 07:28:36;;;;;;;11.10;8.93;;;;;;;;;;5129165;27;20047;-57
2022/12/25 07:31:03;;;;;;;16.75;11.68;;;;;;;;;;5128270;27;20480;-56
2022/12/25 07:33:29;;;;;;;14.30;10.38;;;;;;;;;;5128510;27;20043;-57
2022/12/25 07:35:55;;;;;;;14.57;10.48;;;;;;;;;;5128746;27;20043;-56
2022/12/25 07:38:21;;;;;;;18.35;11.35;;;;;;;;;;5127783;27;20129;-56
2022/12/25 07:40:47;;;;;;;15.57;11.18;;;;;;;;;;5129041;27;20039;-56
2022/12/25 07:43:14;;;;;;;15.77;9.85;;;;;;;;;;5128225;27;20510;-57
2022/12/25 07:45:40;;;;;;;12.65;10.00;;;;;;;;;;5128205;27;20045;-56
2022/12/25 07:48:06;;;;;;;15.93;11.45;;;;;;;;;;5128712;27;20481;-57
2022/12/25 07:50:32;;;;;;;19.05;13.38;;;;;;;;;;5128289;27;20047;-56
2022/12/25 07:52:58;;;;;;;21.50;13.80;;;;;;;;;;5127877;27;20039;-56
2022/12/25 07:55:24;;;;;;;17.13;11.70;;;;;;;;;;5127883;27;20039;-57
2022/12/25 07:57:50;;;;;;;19.73;12.25;;;;;;;;;;5128747;27;20073;-56
2022/12/25 08:00:16;;;;;;;13.50;10.70;;;;;;;;;;5127577;27;20058;-57
2022/12/25 08:02:42;;;;;;;16.92;13.13;;;;;;;;;;5128116;27;20350;-57
2022/12/25 08:05:08;;;;;;;17.08;12.15;;;;;;;;;;5128549;27;20051;-56
2022/12/25 08:07:34;;;;;;;14.35;10.80;;;;;;;;;;5127655;27;20047;-57
2022/12/25 08:10:01;;;;;;;14.38;10.45;;;;;;;;;;5128111;27;20107;-56
2022/12/25 08:12:27;;;;;;;14.27;10.73;;;;;;;;;;5127756;27;20478;-56
2022/12/25 08:14:53;;;;;;;12.80;10.95;;;;;;;;;;5127284;27;20046;-56
2022/12/25 08:17:19;;;;;;;12.05;9.48;;;;;;;;;;5127785;27;20258;-57
2022/12/25 08:19:45;;;;;;;14.43;10.55;;;;;;;;;;5127099;27;20046;-56
2022/12/25 08:22:11;;;;;;;13.55;10.00;;;;;;;;;;5127545;27;20043;-57
2022/12/25 08:24:37;;;;;;;10.90;9.70;;;;;;;;;;5128133;27;20133;-57
2022/12/25 08:27:03;;;;;;;12.02;10.38;;;;;;;;;;5127153;27;20126;-56
2022/12/25 08:29:29;;;;;;;16.73;12.02;;;;;;;;;;5127613;27;20134;-56
2022/12/25 08:31:55;;;;;;;15.38;12.07;;;;;;;;;;5127714;27;20058;-56
2022/12/25 08:34:21;;;;;;;16.23;11.10;;;;;;;;;;5127049;27;20150;-57
2022/12/25 08:36:47;;;;;;;11.68;10.00;;;;;;;;;;5127904;27;20035;-57
2022/12/25 08:39:13;;;;;;;13.48;10.02;;;;;;;;;;5127416;27;20049;-56
2022/12/25 08:41:39;;;;;;;14.82;9.90;;;;;;;;;;5127033;27;20058;-56
2022/12/25 08:44:05;;;;;;;14.75;11.43;;;;;;;;;;5127677;27;20379;-57
2022/12/25 08:46:32;;;;;;;14.50;11.90;;;;;;;;;;5127085;27;20490;-56
2022/12/25 08:48:58;;;;;;;15.02;11.77;;;;;;;;;;5126965;27;20047;-57
2022/12/25 08:51:24;;;;;;;13.73;10.90;;;;;;;;;;5127132;27;20047;-56
2022/12/25 08:53:51;;;;;;;14.38;11.25;;;;;;;;;;5127670;27;20552;-56
2022/12/25 08:56:18;;;;;;;16.52;11.93;;;;;;;;;;5126748;27;20047;-57
2022/12/25 08:58:44;;;;;;;16.30;10.30;;;;;;;;;;5127510;27;20061;-55
2022/12/25 09:01:11;;;;;;;11.07;8.55;;;;;;;;;;5126955;28;20058;-56
2022/12/25 09:03:37;;;;;;;10.13;8.88;;;;;;;;;;5126899;28;20082;-56
2022/12/25 09:06:04;;;;;;;13.25;9.65;;;;;;;;;;5127378;28;20134;-57
2022/12/25 09:08:30;;;;;;;11.73;8.15;;;;;;;;;;5126616;28;20433;-56
2022/12/25 09:11:00;;;;;;;9.55;7.55;;;;;;;;;;5126106;28;20085;-56
2022/12/25 09:13:26;;;;;;;10.95;7.88;;;;;;;;;;5126848;28;20058;-57
2022/12/25 09:15:52;;;;;;;8.90;8.00;;;;;;;;;;5127484;28;20043;-57
2022/12/25 09:18:18;;;;;;;10.05;8.35;;;;;;;;;;5126449;28;20046;-56
2022/12/25 09:20:44;;;;;;;11.40;8.93;;;;;;;;;;5127219;28;20039;-56
2022/12/25 09:23:10;;;;;;;8.65;7.45;;;;;;;;;;5126278;28;20099;-56
2022/12/25 09:25:36;;;;;;;10.80;7.82;;;;;;;;;;5127281;28;20401;-57
2022/12/25 09:28:02;;;;;;;9.45;8.20;;;;;;;;;;5126885;28;20513;-57
2022/12/25 09:30:28;;;;;;;9.95;7.40;;;;;;;;;;5126425;27;20039;-57
2022/12/25 09:32:54;;;;;;;9.32;7.93;;;;;;;;;;5130299;27;20054;-56
2022/12/25 09:35:20;;;;;;;9.60;8.05;;;;;;;;;;5134543;27;20536;-56
2022/12/25 09:37:46;;;;;;;11.88;8.55;;;;;;;;;;5130412;27;20042;-57
2022/12/25 09:40:19;;;;;;;10.48;8.15;;;;;;;;;;5129725;27;20050;-57
2022/12/25 09:42:46;;;;;;;7.85;7.10;;;;;;;;;;5130539;27;20107;-56
2022/12/25 09:45:24;;;;;;;10.35;7.53;;;;;;;;;;5129449;27;20042;-57
2022/12/25 09:47:52;;;;;;;10.40;7.28;;;;;;;;;;5130905;27;20047;-57
2022/12/25 09:50:47;;;;;;;9.18;7.43;;;;;;;;;;5130355;27;20035;-56
2022/12/25 09:53:20;;;;;;;11.27;7.55;;;;;;;;;;5111601;27;20567;-54
2022/12/25 09:55:59;;;;;;;9.50;6.65;;;;;;;;;;5130678;27;20554;-55
2022/12/25 09:58:25;;;;;;;12.13;8.07;;;;;;;;;;5129399;27;20043;-56
2022/12/25 10:00:56;;;;;;;12.68;7.63;;;;;;;;;;5130097;27;20497;-53
2022/12/25 10:03:27;;;;;;;7.80;6.70;;;;;;;;;;5129705;27;20047;-56
2022/12/25 10:06:16;;;;;;;7.75;6.65;;;;;;;;;;5129550;27;20039;-56
2022/12/25 10:09:03;;;;;;;8.07;6.90;;;;;;;;;;5130177;27;20043;-56
2022/12/25 10:11:41;;;;;;;9.95;7.35;;;;;;;;;;5129578;27;20066;-56
2022/12/25 10:14:13;;;;;;;9.57;6.68;;;;;;;;;;5129482;27;20117;-56
2022/12/25 10:16:45;;;;;;;9.63;6.97;;;;;;;;;;5130364;27;20122;-56
2022/12/25 10:19:34;;;;;;;7.07;5.78;;;;;;;;;;5129647;27;20069;-56
2022/12/25 10:22:02;;;;;;;6.80;6.13;;;;;;;;;;5129723;27;20043;-57
2022/12/25 10:24:42;;;;;;;12.02;7.10;;;;;;;;;;5129332;27;20045;-57
2022/12/25 10:27:17;;;;;;;9.57;7.38;;;;;;;;;;5129392;27;20047;-56
2022/12/25 10:29:45;;;;;;;12.88;7.47;;;;;;;;;;5111212;27;20087;-56
2022/12/25 10:32:11;;;;;;;10.88;7.07;;;;;;;;;;5129070;27;20451;-56
2022/12/25 10:34:39;;;;;;;10.30;5.80;;;;;;;;;;5128792;27;20103;-57
2022/12/25 10:37:05;;;;;;;8.13;7.35;;;;;;;;;;5129033;27;20046;-56
2022/12/25 10:39:31;;;;;;;7.50;6.25;;;;;;;;;;5129449;27;20428;-56
2022/12/25 10:42:16;;;;;;;6.38;5.78;;;;;;;;;;5128500;27;20061;-56
2022/12/25 10:44:53;;;;;;;9.27;7.13;;;;;;;;;;5128322;27;20050;-56
2022/12/25 10:47:23;;;;;;;10.25;6.93;;;;;;;;;;5128985;27;20047;-56
2022/12/25 10:49:49;;;;;;;9.25;7.18;;;;;;;;;;5129285;27;20047;-56
2022/12/25 10:52:19;;;;;;;9.65;6.93;;;;;;;;;;5128773;27;20436;-56
2022/12/25 10:54:45;;;;;;;9.82;6.45;;;;;;;;;;5128771;27;20039;-56
2022/12/25 10:57:15;;;;;;;8.10;6.53;;;;;;;;;;5128856;27;20122;-56
2022/12/25 10:59:48;;;;;;;8.98;6.63;;;;;;;;;;5128951;27;20755;-56
2022/12/25 11:02:25;;;;;;;9.98;6.65;;;;;;;;;;5128112;27;20045;-56
2022/12/25 11:04:52;;;;;;;8.80;5.78;;;;;;;;;;5129294;27;20050;-55
2022/12/25 11:07:18;;;;;;;8.48;6.75;;;;;;;;;;5128622;27;20131;-56
2022/12/25 11:09:51;;;;;;;9.60;6.80;;;;;;;;;;5128168;27;20063;-56
2022/12/25 11:12:18;;;;;;;9.63;7.00;;;;;;;;;;5128693;27;20086;-56
2022/12/25 11:14:58;;;;;;;9.88;7.20;;;;;;;;;;5128875;27;20448;-56
2022/12/25 11:17:25;;;;;;;7.90;6.22;;;;;;;;;;5127712;27;20871;-54
2022/12/25 11:19:53;;;;;;;12.32;7.40;;;;;;;;;;5128765;27;20148;-56
2022/12/25 11:22:19;;;;;;;8.23;6.55;;;;;;;;;;5128497;27;20046;-53
2022/12/25 11:24:45;;;;;;;12.20;6.88;;;;;;;;;;5128020;27;20486;-56
2022/12/25 11:27:22;;;;;;;7.00;6.30;;;;;;;;;;5109767;27;20055;-55
2022/12/25 11:29:54;;;;;;;8.52;6.32;;;;;;;;;;5127987;27;20611;-56
2022/12/25 11:32:38;;;;;;;7.15;6.00;;;;;;;;;;5128535;27;20035;-56
2022/12/25 11:35:09;;;;;;;8.02;6.47;;;;;;;;;;5128391;27;20074;-56
2022/12/25 11:37:38;;;;;;;7.88;6.22;;;;;;;;;;5128109;27;20040;-56
2022/12/25 11:40:05;;;;;;;6.15;5.03;;;;;;;;;;5128441;27;20047;-56
2022/12/25 11:42:36;;;;;;;7.35;6.57;;;;;;;;;;5128083;27;20039;-56
2022/12/25 11:45:02;;;;;;;5.68;5.15;;;;;;;;;;5127565;27;20075;-56
2022/12/25 11:47:46;;;;;;;7.40;5.32;;;;;;;;;;5128089;27;20453;-56
2022/12/25 11:50:12;;;;;;;8.77;5.68;;;;;;;;;;5128238;27;20042;-52
2022/12/25 11:52:40;;;;;;;6.97;5.85;;;;;;;;;;5125167;27;20046;-56
2022/12/25 11:55:18;;;;;;;9.25;5.25;;;;;;;;;;5127586;27;20043;-56
2022/12/25 11:57:45;;;;;;;7.22;5.13;;;;;;;;;;5128179;27;20043;-56
2022/12/25 12:00:13;;;;;;;5.40;4.90;;;;;;;;;;5127009;27;20054;-55
2022/12/25 12:02:51;;;;;;;6.00;4.67;;;;;;;;;;5128135;27;20047;-56
2022/12/25 12:05:20;;;;;;;5.25;4.40;;;;;;;;;;5127099;27;20047;-56
2022/12/25 12:07:52;;;;;;;5.03;4.57;;;;;;;;;;5109350;27;20122;-57
2022/12/25 12:10:26;;;;;;;5.55;4.65;;;;;;;;;;5127266;27;20051;-56
2022/12/25 12:12:52;;;;;;;6.22;5.18;;;;;;;;;;5127080;27;20089;-56
2022/12/25 12:15:18;;;;;;;9.25;4.80;;;;;;;;;;5127946;27;20047;-56
2022/12/25 12:17:44;;;;;;;6.22;4.88;;;;;;;;;;5128124;27;20127;-56
2022/12/25 12:20:26;;;;;;;4.45;4.05;;;;;;;;;;5127266;27;20047;-56
2022/12/25 12:22:52;;;;;;;6.18;4.70;;;;;;;;;;5127937;27;20046;-56
2022/12/25 12:25:18;;;;;;;6.78;4.05;;;;;;;;;;5127730;27;20041;-56
2022/12/25 12:27:44;;;;;;;4.50;4.10;;;;;;;;;;5127511;27;20414;-55
2022/12/25 12:30:30;;;;;;;3.92;3.53;;;;;;;;;;5127563;27;20039;-56
2022/12/25 12:33:01;;;;;;;5.78;4.38;;;;;;;;;;5127325;27;20131;-56
2022/12/25 12:35:29;;;;;;;4.40;3.85;;;;;;;;;;5127437;27;20512;-56
2022/12/25 12:38:01;;;;;;;4.68;3.60;;;;;;;;;;5127633;27;20095;-55
2022/12/25 12:40:27;;;;;;;;;;;;;;;;;;5127438;27;20053;-56
2022/12/25 12:42:53;;;;;;;4.03;3.33;;;;;;;;;;5127588;27;20005;-56
2022/12/25 12:45:22;;;;;;;4.10;3.05;;;;;;;;;;5127353;27;20047;-55
2022/12/25 12:47:50;;;;;;;6.18;3.53;;;;;;;;;;5127149;27;20040;-56
2022/12/25 12:50:34;;;;;;;4.57;3.80;;;;;;;;;;5127326;27;20047;-56
2022/12/25 12:53:14;;;;;;;4.68;3.88;;;;;;;;;;5127532;27;20097;-55
2022/12/25 12:55:40;;;;;;;4.43;3.25;;;;;;;;;;5126432;27;20425;-56
2022/12/25 12:58:07;;;;;;;3.40;3.10;;;;;;;;;;5127474;27;20512;-56
2022/12/25 13:00:39;;;;;;;6.03;3.25;;;;;;;;;;5127086;28;20491;-56
2022/12/25 13:03:05;;;;;;;3.97;2.90;;;;;;;;;;5126708;28;20047;-56
2022/12/25 13:05:40;;;;;;;4.07;3.22;;;;;;;;;;5127318;27;20043;-56
2022/12/25 13:08:09;;;;;;;2.92;2.67;;;;;;;;;;5130592;27;20439;-56
2022/12/25 13:10:37;;;;;;;3.28;2.72;;;;;;;;;;5131775;27;20371;-56
2022/12/25 13:13:06;;;;;;;2.38;2.17;;;;;;;;;;5131401;27;20118;-56
2022/12/25 13:15:33;;;;;;;3.25;2.65;;;;;;;;;;5130691;27;20043;-56
2022/12/25 13:18:04;;;;;;;3.85;2.92;;;;;;;;;;5131546;27;20042;-55
2022/12/25 13:20:37;;;;;;;2.50;2.30;;;;;;;;;;5131207;27;20043;-56
2022/12/25 13:23:12;;;;;;;4.53;3.17;;;;;;;;;;5130768;27;20047;-56
2022/12/25 13:25:38;;;;;;;2.78;2.55;;;;;;;;;;5131494;27;20039;-56
2022/12/25 13:28:04;;;;;;;3.70;3.33;;;;;;;;;;5131591;27;20035;-56
2022/12/25 13:30:30;;;;;;;3.10;2.60;;;;;;;;;;5130424;27;20546;-56
2022/12/25 13:32:58;;;;;;;4.70;3.38;;;;;;;;;;5131046;27;20059;-56
2022/12/25 13:35:24;;;;;;;5.43;3.47;;;;;;;;;;5130972;27;20439;-56
2022/12/25 13:37:51;;;;;;;4.78;3.67;;;;;;;;;;5130579;27;20078;-56
2022/12/25 13:40:20;;;;;;;3.55;3.25;;;;;;;;;;5130820;27;20039;-56
2022/12/25 13:42:46;;;;;;;2.80;2.60;;;;;;;;;;5131029;27;20044;-56
2022/12/25 13:45:12;;;;;;;2.80;2.55;;;;;;;;;;5129609;27;20051;-57
2022/12/25 13:47:41;;;;;;;2.88;2.10;;;;;;;;;;5130619;27;20058;-57
2022/12/25 13:50:25;;;;;;;4.25;2.53;;;;;;;;;;5131075;27;20051;-57
2022/12/25 13:52:51;;;;;;;1.90;1.80;;;;;;;;;;5130987;27;20050;-56
2022/12/25 13:55:19;;;;;;;2.22;1.90;;;;;;;;;;5130462;27;20502;-56
2022/12/25 13:57:51;;;;;;;2.10;1.88;;;;;;;;;;5130014;27;20096;-56
2022/12/25 14:00:19;;;;;;;2.03;1.83;;;;;;;;;;5130840;27;20160;-56
2022/12/25 14:02:45;;;;;;;1.60;1.45;;;;;;;;;;5130524;27;20046;-56
2022/12/25 14:05:23;;;;;;;2.45;1.33;;;;;;;;;;5129179;27;20049;-56
2022/12/25 14:07:51;;;;;;;1.02;0.98;;;;;;;;;;5130658;27;20082;-56
2022/12/25 14:10:17;;;;;;;1.40;1.30;;;;;;;;;;5130293;27;20051;-56
2022/12/25 14:12:43;;;;;;;1.63;1.27;;;;;;;;;;5129548;27;20557;-56
2022/12/25 14:15:14;;;;;;;1.17;1.08;;;;;;;;;;5129265;27;20438;-56
2022/12/25 14:17:40;;;;;;;1.65;0.70;;;;;;;;;;5129072;27;20539;-54
2022/12/25 14:20:06;;;;;;;1.60;1.20;;;;;;;;;;5132353;27;20031;-56
2022/12/25 14:22:34;;;;;;;2.70;1.10;;;;;;;;;;5149446;27;20120;-56
2022/12/25 14:25:00;;;;;;;1.63;1.00;;;;;;;;;;5149994;27;20087;-56
2022/12/25 14:27:27;;;;;;;1.20;1.10;;;;;;;;;;5124867;27;20038;-56
2022/12/25 14:29:58;;;;;;;1.35;1.20;;;;;;;;;;5134849;27;20279;-56
2022/12/25 14:32:25;;;;;;;1.02;1.00;;;;;;;;;;5136722;27;20090;-58
2022/12/25 14:34:56;;;;;;;1.48;1.38;;;;;;;;;;5135245;27;20553;-56
2022/12/25 14:37:24;;;;;;;1.10;1.00;;;;;;;;;;5136152;27;20425;-56
2022/12/25 14:39:58;;;;;;;1.45;1.35;;;;;;;;;;5136294;27;20082;-56
2022/12/25 14:42:26;;;;;;;1.10;1.00;;;;;;;;;;5136296;27;20394;-56
2022/12/25 14:45:02;;;;;;;1.20;1.10;;;;;;;;;;5135591;27;20059;-56
2022/12/25 14:47:28;;;;;;;1.42;1.33;;;;;;;;;;5140308;27;20061;-56
2022/12/25 14:49:54;;;;;;;1.92;1.83;;;;;;;;;;5133278;27;20047;-56
2022/12/25 14:52:23;;;;;;;3.20;2.78;;;;;;;;;;5141981;27;20035;-57
2022/12/25 14:54:53;;;;;;;4.07;3.28;;;;;;;;;;5144274;27;20049;-56
2022/12/25 14:57:25;;;;;;;2.42;2.22;;;;;;;;;;5146974;27;20050;-55
2022/12/25 14:59:56;;;;;;;1.95;1.85;;;;;;;;;;5133555;27;20497;-56
2022/12/25 15:02:22;;;;;;;2.25;2.05;;;;;;;;;;5130241;27;20493;-56
2022/12/25 15:04:48;;;;;;;1.67;1.55;;;;;;;;;;5129979;27;20167;-56
2022/12/25 15:07:25;;;;;;;2.05;1.77;;;;;;;;;;5137222;27;20041;-56
2022/12/25 15:09:51;;;;;;;2.10;1.90;;;;;;;;;;5147991;27;20168;-56
2022/12/25 15:12:17;;;;;;;2.10;1.88;;;;;;;;;;5145888;27;20122;-57
2022/12/25 15:14:43;;;;;;;2.60;2.40;;;;;;;;;;5132915;27;20654;-57
2022/12/25 15:17:17;;;;;;;3.45;2.28;;;;;;;;;;5134608;27;20047;-56
2022/12/25 15:19:43;;;;;;;2.97;2.60;;;;;;;;;;5139218;27;20546;-56
2022/12/25 15:22:12;;;;;;;3.50;3.20;;;;;;;;;;5136005;27;20077;-56
2022/12/25 15:24:38;;;;;;;2.90;2.70;;;;;;;;;;5139299;27;20047;-55
2022/12/25 15:27:05;;;;;;;2.50;2.30;;;;;;;;;;5139962;27;20065;-56
2022/12/25 15:29:31;;;;;;;11.70;3.47;;;;;;;;;;5146646;27;20034;-55
2022/12/25 15:31:57;;;;;;;3.65;3.35;;;;;;;;;;5143368;27;20528;-57
2022/12/25 15:34:24;;;;;;;3.20;2.60;;;;;;;;;;5143093;27;20129;-56
2022/12/25 15:36:53;;;;;;;2.67;2.47;;;;;;;;;;5132152;27;20069;-56
2022/12/25 15:39:19;;;;;;;1.80;1.70;;;;;;;;;;5143316;27;20039;-56
2022/12/25 15:44:30;;;;;;;2.13;1.95;;;;;;;;;;5137803;27;20116;-57
2022/12/25 15:46:56;;;;;;;1.83;1.73;;;;;;;;;;5140250;27;20104;-54
2022/12/25 15:49:22;;;;;;;1.80;1.70;;;;;;;;;;5129514;27;20043;-56
2022/12/25 15:51:48;;;;;;;1.70;1.60;;;;;;;;;;5129652;27;20524;-56
2022/12/25 15:54:14;;;;;;;1.92;1.80;;;;;;;;;;5137248;27;20106;-56
2022/12/25 15:56:50;;;;;;;1.40;1.30;;;;;;;;;;5128786;27;20035;-56
2022/12/25 15:59:17;;;;;;;1.48;1.38;;;;;;;;;;5129131;27;20035;-56
2022/12/25 16:01:50;;;;;;;1.40;1.30;;;;;;;;;;5139855;27;20039;-56
2022/12/25 16:04:16;;;;;;;1.45;1.33;;;;;;;;;;5137911;27;20111;-56
2022/12/25 16:06:42;;;;;;;1.48;1.38;;;;;;;;;;5149279;27;20042;-56
2022/12/25 16:09:10;;;;;;;1.40;1.30;;;;;;;;;;5145490;27;20428;-55
2022/12/25 16:11:36;;;;;;;1.33;1.23;;;;;;;;;;5142022;27;20212;-56
2022/12/25 16:14:02;;;;;;;1.70;1.60;;;;;;;;;;5147199;27;20553;-56
2022/12/25 16:16:28;;;;;;;1.55;1.20;;;;;;;;;;5140970;27;20337;-56
2022/12/25 16:18:54;;;;;;;2.03;1.70;;;;;;;;;;5134852;27;20088;-56
2022/12/25 16:21:21;;;;;;;1.65;1.55;;;;;;;;;;5137220;27;20140;-57
2022/12/25 16:23:47;;;;;;;1.67;1.58;;;;;;;;;;5130878;27;20082;-57